sensor_id;sensor_type;location;lat;lon;timestamp;P1;durP1;ratioP1;P2;durP2;ratioP2
12986;SDS011;58897;51.960;5.582;2023-05-02T00:00:46;13.90;;;8.20;;
12986;SDS011;58897;51.960;5.582;2023-05-02T00:03:13;15.70;;;8.80;;
12986;SDS011;58897;51.960;5.582;2023-05-02T00:05:39;16.33;;;8.97;;
12986;SDS011;58897;51.960;5.582;2023-05-02T00:08:06;18.80;;;10.17;;
12986;SDS011;58897;51.960;5.582;2023-05-02T00:10:33;17.30;;;10.00;;
12986;SDS011;58897;51.960;5.582;2023-05-02T00:13:00;20.33;;;9.90;;
12986;SDS011;58897;51.960;5.582;2023-05-02T00:15:26;21.97;;;10.93;;
12986;SDS011;58897;51.960;5.582;2023-05-02T00:17:53;20.50;;;11.33;;
12986;SDS011;58897;51.960;5.582;2023-05-02T00:20:19;20.07;;;11.43;;
12986;SDS011;58897;51.960;5.582;2023-05-02T00:22:46;20.50;;;11.90;;
12986;SDS011;58897;51.960;5.582;2023-05-02T00:25:12;20.37;;;10.73;;
12986;SDS011;58897;51.960;5.582;2023-05-02T00:27:42;23.17;;;12.27;;
12986;SDS011;58897;51.960;5.582;2023-05-02T00:30:11;20.43;;;11.63;;
12986;SDS011;58897;51.960;5.582;2023-05-02T00:32:39;18.23;;;10.57;;
12986;SDS011;58897;51.960;5.582;2023-05-02T00:35:06;19.60;;;10.73;;
12986;SDS011;58897;51.960;5.582;2023-05-02T00:37:33;19.00;;;11.00;;
12986;SDS011;58897;51.960;5.582;2023-05-02T00:40:00;22.10;;;10.80;;
12986;SDS011;58897;51.960;5.582;2023-05-02T00:42:27;18.97;;;10.27;;
12986;SDS011;58897;51.960;5.582;2023-05-02T00:44:57;20.43;;;11.73;;
12986;SDS011;58897;51.960;5.582;2023-05-02T00:47:23;20.23;;;10.57;;
12986;SDS011;58897;51.960;5.582;2023-05-02T00:49:50;22.47;;;11.27;;
12986;SDS011;58897;51.960;5.582;2023-05-02T00:52:16;18.40;;;10.50;;
12986;SDS011;58897;51.960;5.582;2023-05-02T00:54:43;18.33;;;10.03;;
12986;SDS011;58897;51.960;5.582;2023-05-02T00:57:10;16.00;;;9.83;;
12986;SDS011;58897;51.960;5.582;2023-05-02T00:59:37;21.07;;;11.17;;
12986;SDS011;58897;51.960;5.582;2023-05-02T01:07:53;16.93;;;9.73;;
12986;SDS011;58897;51.960;5.582;2023-05-02T01:10:36;16.40;;;10.07;;
12986;SDS011;58897;51.960;5.582;2023-05-02T01:13:21;18.83;;;10.43;;
12986;SDS011;58897;51.960;5.582;2023-05-02T01:15:52;21.20;;;11.13;;
12986;SDS011;58897;51.960;5.582;2023-05-02T01:18:25;18.47;;;9.90;;
12986;SDS011;58897;51.960;5.582;2023-05-02T01:21:08;15.97;;;9.10;;
12986;SDS011;58897;51.960;5.582;2023-05-02T01:26:44;16.57;;;9.07;;
12986;SDS011;58897;51.960;5.582;2023-05-02T01:29:18;17.30;;;9.10;;
12986;SDS011;58897;51.960;5.582;2023-05-02T01:31:48;16.23;;;8.97;;
12986;SDS011;58897;51.960;5.582;2023-05-02T01:34:16;15.67;;;8.37;;
12986;SDS011;58897;51.960;5.582;2023-05-02T01:36:46;17.13;;;9.50;;
12986;SDS011;58897;51.960;5.582;2023-05-02T01:39:17;20.93;;;10.33;;
12986;SDS011;58897;51.960;5.582;2023-05-02T01:41:48;15.47;;;8.40;;
12986;SDS011;58897;51.960;5.582;2023-05-02T01:44:20;13.97;;;8.17;;
12986;SDS011;58897;51.960;5.582;2023-05-02T01:46:48;12.77;;;7.77;;
12986;SDS011;58897;51.960;5.582;2023-05-02T01:49:18;13.60;;;7.40;;
12986;SDS011;58897;51.960;5.582;2023-05-02T01:51:46;12.03;;;7.27;;
12986;SDS011;58897;51.960;5.582;2023-05-02T01:54:15;17.50;;;7.70;;
12986;SDS011;58897;51.960;5.582;2023-05-02T01:56:43;11.90;;;5.93;;
12986;SDS011;58897;51.960;5.582;2023-05-02T01:59:12;13.77;;;5.77;;
12986;SDS011;58897;51.960;5.582;2023-05-02T02:01:42;6.43;;;3.87;;
12986;SDS011;58897;51.960;5.582;2023-05-02T02:04:10;8.47;;;4.57;;
12986;SDS011;58897;51.960;5.582;2023-05-02T02:06:41;6.90;;;4.30;;
12986;SDS011;58897;51.960;5.582;2023-05-02T02:09:12;7.53;;;4.47;;
12986;SDS011;58897;51.960;5.582;2023-05-02T02:11:43;6.57;;;2.90;;
12986;SDS011;58897;51.960;5.582;2023-05-02T02:14:17;6.80;;;3.43;;
12986;SDS011;58897;51.960;5.582;2023-05-02T02:16:46;5.90;;;2.97;;
12986;SDS011;58897;51.960;5.582;2023-05-02T02:19:15;5.77;;;3.33;;
12986;SDS011;58897;51.960;5.582;2023-05-02T02:21:43;4.37;;;2.67;;
12986;SDS011;58897;51.960;5.582;2023-05-02T02:24:13;5.00;;;3.00;;
12986;SDS011;58897;51.960;5.582;2023-05-02T02:26:43;5.13;;;3.17;;
12986;SDS011;58897;51.960;5.582;2023-05-02T02:29:10;6.37;;;3.30;;
12986;SDS011;58897;51.960;5.582;2023-05-02T02:31:37;4.13;;;2.70;;
12986;SDS011;58897;51.960;5.582;2023-05-02T02:34:04;4.70;;;2.40;;
12986;SDS011;58897;51.960;5.582;2023-05-02T02:39:07;4.53;;;2.57;;
12986;SDS011;58897;51.960;5.582;2023-05-02T02:44:54;5.77;;;2.87;;
12986;SDS011;58897;51.960;5.582;2023-05-02T02:47:27;5.27;;;2.97;;
12986;SDS011;58897;51.960;5.582;2023-05-02T02:50:13;10.37;;;3.50;;
12986;SDS011;58897;51.960;5.582;2023-05-02T02:53:01;7.13;;;3.23;;
12986;SDS011;58897;51.960;5.582;2023-05-02T02:55:39;7.20;;;3.50;;
12986;SDS011;58897;51.960;5.582;2023-05-02T02:58:29;7.03;;;3.33;;
12986;SDS011;58897;51.960;5.582;2023-05-02T03:01:05;7.63;;;2.80;;
12986;SDS011;58897;51.960;5.582;2023-05-02T03:03:37;5.57;;;2.60;;
12986;SDS011;58897;51.960;5.582;2023-05-02T03:06:06;6.17;;;2.70;;
12986;SDS011;58897;51.960;5.582;2023-05-02T03:08:39;6.40;;;2.30;;
12986;SDS011;58897;51.960;5.582;2023-05-02T03:11:06;5.83;;;2.50;;
12986;SDS011;58897;51.960;5.582;2023-05-02T03:13:34;5.27;;;2.10;;
12986;SDS011;58897;51.960;5.582;2023-05-02T03:16:20;5.93;;;2.50;;
12986;SDS011;58897;51.960;5.582;2023-05-02T03:18:56;4.40;;;2.53;;
12986;SDS011;58897;51.960;5.582;2023-05-02T03:21:23;3.77;;;2.13;;
12986;SDS011;58897;51.960;5.582;2023-05-02T03:23:49;10.40;;;3.10;;
12986;SDS011;58897;51.960;5.582;2023-05-02T03:26:16;6.63;;;2.50;;
12986;SDS011;58897;51.960;5.582;2023-05-02T03:28:42;3.90;;;2.10;;
12986;SDS011;58897;51.960;5.582;2023-05-02T03:31:12;3.40;;;2.23;;
12986;SDS011;58897;51.960;5.582;2023-05-02T03:33:40;5.57;;;2.23;;
12986;SDS011;58897;51.960;5.582;2023-05-02T03:36:06;6.00;;;2.60;;
12986;SDS011;58897;51.960;5.582;2023-05-02T03:38:33;6.00;;;2.30;;
12986;SDS011;58897;51.960;5.582;2023-05-02T03:40:59;5.13;;;2.40;;
12986;SDS011;58897;51.960;5.582;2023-05-02T03:43:26;4.67;;;1.93;;
12986;SDS011;58897;51.960;5.582;2023-05-02T03:45:52;3.70;;;1.80;;
12986;SDS011;58897;51.960;5.582;2023-05-02T03:48:19;2.80;;;1.70;;
12986;SDS011;58897;51.960;5.582;2023-05-02T03:50:46;5.23;;;1.90;;
12986;SDS011;58897;51.960;5.582;2023-05-02T03:53:12;5.70;;;3.07;;
12986;SDS011;58897;51.960;5.582;2023-05-02T03:55:41;7.60;;;2.43;;
12986;SDS011;58897;51.960;5.582;2023-05-02T03:58:11;6.40;;;2.57;;
12986;SDS011;58897;51.960;5.582;2023-05-02T04:00:38;6.20;;;2.40;;
12986;SDS011;58897;51.960;5.582;2023-05-02T04:03:04;5.13;;;2.03;;
12986;SDS011;58897;51.960;5.582;2023-05-02T04:05:32;7.13;;;2.90;;
12986;SDS011;58897;51.960;5.582;2023-05-02T04:07:59;7.40;;;2.07;;
12986;SDS011;58897;51.960;5.582;2023-05-02T04:10:26;6.30;;;2.00;;
12986;SDS011;58897;51.960;5.582;2023-05-02T04:12:53;4.07;;;2.07;;
12986;SDS011;58897;51.960;5.582;2023-05-02T04:15:19;5.80;;;2.67;;
12986;SDS011;58897;51.960;5.582;2023-05-02T04:17:46;9.73;;;2.37;;
12986;SDS011;58897;51.960;5.582;2023-05-02T04:20:12;4.20;;;1.90;;
12986;SDS011;58897;51.960;5.582;2023-05-02T04:22:39;5.17;;;2.10;;
12986;SDS011;58897;51.960;5.582;2023-05-02T04:25:06;4.53;;;1.50;;
12986;SDS011;58897;51.960;5.582;2023-05-02T04:27:33;3.47;;;2.00;;
12986;SDS011;58897;51.960;5.582;2023-05-02T04:29:59;4.80;;;1.73;;
12986;SDS011;58897;51.960;5.582;2023-05-02T04:32:26;7.37;;;1.73;;
12986;SDS011;58897;51.960;5.582;2023-05-02T04:34:53;4.53;;;2.30;;
12986;SDS011;58897;51.960;5.582;2023-05-02T04:37:19;4.20;;;2.10;;
12986;SDS011;58897;51.960;5.582;2023-05-02T04:39:46;5.20;;;2.20;;
12986;SDS011;58897;51.960;5.582;2023-05-02T04:42:12;4.20;;;1.77;;
12986;SDS011;58897;51.960;5.582;2023-05-02T04:44:39;4.43;;;2.13;;
12986;SDS011;58897;51.960;5.582;2023-05-02T04:47:05;3.77;;;1.83;;
12986;SDS011;58897;51.960;5.582;2023-05-02T04:49:32;4.37;;;2.27;;
12986;SDS011;58897;51.960;5.582;2023-05-02T04:51:58;5.13;;;1.93;;
12986;SDS011;58897;51.960;5.582;2023-05-02T04:54:25;3.20;;;1.60;;
12986;SDS011;58897;51.960;5.582;2023-05-02T04:56:52;6.60;;;2.40;;
12986;SDS011;58897;51.960;5.582;2023-05-02T04:59:18;7.07;;;2.30;;
12986;SDS011;58897;51.960;5.582;2023-05-02T05:01:45;7.47;;;2.57;;
12986;SDS011;58897;51.960;5.582;2023-05-02T05:04:11;4.40;;;2.20;;
12986;SDS011;58897;51.960;5.582;2023-05-02T05:06:38;5.13;;;2.10;;
12986;SDS011;58897;51.960;5.582;2023-05-02T05:09:05;4.70;;;2.33;;
12986;SDS011;58897;51.960;5.582;2023-05-02T05:11:32;4.10;;;1.67;;
12986;SDS011;58897;51.960;5.582;2023-05-02T05:13:58;4.60;;;1.90;;
12986;SDS011;58897;51.960;5.582;2023-05-02T05:16:25;5.17;;;2.03;;
12986;SDS011;58897;51.960;5.582;2023-05-02T05:18:52;3.90;;;2.30;;
12986;SDS011;58897;51.960;5.582;2023-05-02T05:21:19;8.73;;;2.87;;
12986;SDS011;58897;51.960;5.582;2023-05-02T05:23:45;8.97;;;3.03;;
12986;SDS011;58897;51.960;5.582;2023-05-02T05:26:13;4.63;;;1.60;;
12986;SDS011;58897;51.960;5.582;2023-05-02T05:28:41;6.57;;;2.20;;
12986;SDS011;58897;51.960;5.582;2023-05-02T05:31:09;5.73;;;2.00;;
12986;SDS011;58897;51.960;5.582;2023-05-02T05:33:39;6.33;;;2.60;;
12986;SDS011;58897;51.960;5.582;2023-05-02T05:36:06;6.97;;;2.23;;
12986;SDS011;58897;51.960;5.582;2023-05-02T05:38:34;4.77;;;2.50;;
12986;SDS011;58897;51.960;5.582;2023-05-02T05:41:01;8.27;;;2.67;;
12986;SDS011;58897;51.960;5.582;2023-05-02T05:43:28;4.63;;;2.17;;
12986;SDS011;58897;51.960;5.582;2023-05-02T05:45:54;7.40;;;2.60;;
12986;SDS011;58897;51.960;5.582;2023-05-02T05:48:21;9.03;;;2.80;;
12986;SDS011;58897;51.960;5.582;2023-05-02T05:50:48;7.73;;;2.30;;
12986;SDS011;58897;51.960;5.582;2023-05-02T05:53:17;7.10;;;2.60;;
12986;SDS011;58897;51.960;5.582;2023-05-02T05:55:44;8.40;;;3.03;;
12986;SDS011;58897;51.960;5.582;2023-05-02T05:58:11;10.23;;;2.83;;
12986;SDS011;58897;51.960;5.582;2023-05-02T06:00:38;8.90;;;2.60;;
12986;SDS011;58897;51.960;5.582;2023-05-02T06:03:05;7.67;;;2.80;;
12986;SDS011;58897;51.960;5.582;2023-05-02T06:05:35;5.77;;;3.10;;
12986;SDS011;58897;51.960;5.582;2023-05-02T06:08:02;9.27;;;2.70;;
12986;SDS011;58897;51.960;5.582;2023-05-02T06:10:29;6.17;;;2.57;;
12986;SDS011;58897;51.960;5.582;2023-05-02T06:12:56;6.90;;;2.57;;
12986;SDS011;58897;51.960;5.582;2023-05-02T06:15:23;6.47;;;2.10;;
12986;SDS011;58897;51.960;5.582;2023-05-02T06:17:50;8.47;;;2.60;;
12986;SDS011;58897;51.960;5.582;2023-05-02T06:20:17;8.47;;;3.53;;
12986;SDS011;58897;51.960;5.582;2023-05-02T06:22:44;5.60;;;2.83;;
12986;SDS011;58897;51.960;5.582;2023-05-02T06:25:10;9.67;;;3.43;;
12986;SDS011;58897;51.960;5.582;2023-05-02T06:27:37;11.40;;;2.80;;
12986;SDS011;58897;51.960;5.582;2023-05-02T06:30:03;7.30;;;2.50;;
12986;SDS011;58897;51.960;5.582;2023-05-02T06:32:31;8.77;;;3.13;;
12986;SDS011;58897;51.960;5.582;2023-05-02T06:34:57;12.07;;;3.60;;
12986;SDS011;58897;51.960;5.582;2023-05-02T06:37:24;9.47;;;2.63;;
12986;SDS011;58897;51.960;5.582;2023-05-02T06:39:50;6.10;;;2.63;;
12986;SDS011;58897;51.960;5.582;2023-05-02T06:42:17;4.00;;;2.10;;
12986;SDS011;58897;51.960;5.582;2023-05-02T06:44:43;8.83;;;2.87;;
12986;SDS011;58897;51.960;5.582;2023-05-02T06:47:10;9.43;;;2.93;;
12986;SDS011;58897;51.960;5.582;2023-05-02T06:49:37;6.93;;;2.77;;
12986;SDS011;58897;51.960;5.582;2023-05-02T06:52:03;8.43;;;1.90;;
12986;SDS011;58897;51.960;5.582;2023-05-02T06:54:30;5.40;;;2.20;;
12986;SDS011;58897;51.960;5.582;2023-05-02T06:56:56;6.27;;;2.20;;
12986;SDS011;58897;51.960;5.582;2023-05-02T06:59:24;11.47;;;3.37;;
12986;SDS011;58897;51.960;5.582;2023-05-02T07:01:51;4.17;;;1.97;;
12986;SDS011;58897;51.960;5.582;2023-05-02T07:04:17;7.80;;;3.00;;
12986;SDS011;58897;51.960;5.582;2023-05-02T07:06:45;5.50;;;2.00;;
12986;SDS011;58897;51.960;5.582;2023-05-02T07:09:12;8.40;;;3.20;;
12986;SDS011;58897;51.960;5.582;2023-05-02T07:11:38;7.13;;;2.90;;
12986;SDS011;58897;51.960;5.582;2023-05-02T07:14:05;7.77;;;3.63;;
12986;SDS011;58897;51.960;5.582;2023-05-02T07:16:31;12.57;;;3.17;;
12986;SDS011;58897;51.960;5.582;2023-05-02T07:18:58;4.77;;;2.30;;
12986;SDS011;58897;51.960;5.582;2023-05-02T07:21:25;8.07;;;2.97;;
12986;SDS011;58897;51.960;5.582;2023-05-02T07:23:51;7.23;;;2.40;;
12986;SDS011;58897;51.960;5.582;2023-05-02T07:26:20;4.00;;;2.10;;
12986;SDS011;58897;51.960;5.582;2023-05-02T07:28:48;3.70;;;2.33;;
12986;SDS011;58897;51.960;5.582;2023-05-02T07:31:15;6.30;;;2.90;;
12986;SDS011;58897;51.960;5.582;2023-05-02T07:33:44;9.07;;;2.73;;
12986;SDS011;58897;51.960;5.582;2023-05-02T07:36:10;5.50;;;2.60;;
12986;SDS011;58897;51.960;5.582;2023-05-02T07:38:37;7.40;;;2.43;;
12986;SDS011;58897;51.960;5.582;2023-05-02T07:41:03;7.20;;;2.10;;
12986;SDS011;58897;51.960;5.582;2023-05-02T07:43:29;4.70;;;2.33;;
12986;SDS011;58897;51.960;5.582;2023-05-02T07:45:56;4.37;;;2.27;;
12986;SDS011;58897;51.960;5.582;2023-05-02T07:48:23;7.57;;;2.80;;
12986;SDS011;58897;51.960;5.582;2023-05-02T07:50:52;6.93;;;2.80;;
12986;SDS011;58897;51.960;5.582;2023-05-02T07:53:19;7.80;;;2.80;;
12986;SDS011;58897;51.960;5.582;2023-05-02T07:55:45;7.97;;;2.60;;
12986;SDS011;58897;51.960;5.582;2023-05-02T07:58:12;6.50;;;2.53;;
12986;SDS011;58897;51.960;5.582;2023-05-02T08:00:39;7.63;;;3.00;;
12986;SDS011;58897;51.960;5.582;2023-05-02T08:03:05;8.17;;;2.50;;
12986;SDS011;58897;51.960;5.582;2023-05-02T08:05:33;3.87;;;2.30;;
12986;SDS011;58897;51.960;5.582;2023-05-02T08:07:59;6.77;;;2.87;;
12986;SDS011;58897;51.960;5.582;2023-05-02T08:10:27;9.17;;;3.10;;
12986;SDS011;58897;51.960;5.582;2023-05-02T08:12:53;7.57;;;2.83;;
12986;SDS011;58897;51.960;5.582;2023-05-02T08:15:20;9.10;;;4.70;;
12986;SDS011;58897;51.960;5.582;2023-05-02T08:17:46;7.80;;;3.10;;
12986;SDS011;58897;51.960;5.582;2023-05-02T08:20:13;7.97;;;3.73;;
12986;SDS011;58897;51.960;5.582;2023-05-02T08:22:39;6.47;;;2.20;;
12986;SDS011;58897;51.960;5.582;2023-05-02T08:25:06;7.27;;;2.57;;
12986;SDS011;58897;51.960;5.582;2023-05-02T08:27:33;7.30;;;1.80;;
12986;SDS011;58897;51.960;5.582;2023-05-02T08:30:00;8.97;;;3.13;;
12986;SDS011;58897;51.960;5.582;2023-05-02T08:32:27;6.10;;;2.40;;
12986;SDS011;58897;51.960;5.582;2023-05-02T08:34:55;5.97;;;2.57;;
12986;SDS011;58897;51.960;5.582;2023-05-02T08:37:24;6.33;;;3.00;;
12986;SDS011;58897;51.960;5.582;2023-05-02T08:39:51;5.97;;;2.30;;
12986;SDS011;58897;51.960;5.582;2023-05-02T08:42:17;6.40;;;2.57;;
12986;SDS011;58897;51.960;5.582;2023-05-02T08:44:46;10.53;;;2.83;;
12986;SDS011;58897;51.960;5.582;2023-05-02T08:47:14;5.43;;;2.30;;
12986;SDS011;58897;51.960;5.582;2023-05-02T08:49:41;4.87;;;1.73;;
12986;SDS011;58897;51.960;5.582;2023-05-02T08:52:08;5.73;;;2.30;;
12986;SDS011;58897;51.960;5.582;2023-05-02T08:54:37;5.77;;;2.37;;
12986;SDS011;58897;51.960;5.582;2023-05-02T08:57:04;8.30;;;2.07;;
12986;SDS011;58897;51.960;5.582;2023-05-02T08:59:31;5.13;;;1.90;;
12986;SDS011;58897;51.960;5.582;2023-05-02T09:02:03;4.83;;;2.40;;
12986;SDS011;58897;51.960;5.582;2023-05-02T09:04:38;4.47;;;2.10;;
12986;SDS011;58897;51.960;5.582;2023-05-02T09:07:07;3.93;;;2.63;;
12986;SDS011;58897;51.960;5.582;2023-05-02T09:09:35;5.43;;;2.53;;
12986;SDS011;58897;51.960;5.582;2023-05-02T09:12:02;3.57;;;2.20;;
12986;SDS011;58897;51.960;5.582;2023-05-02T09:14:29;3.27;;;1.80;;
12986;SDS011;58897;51.960;5.582;2023-05-02T09:16:58;5.70;;;2.13;;
12986;SDS011;58897;51.960;5.582;2023-05-02T09:19:26;5.27;;;2.60;;
12986;SDS011;58897;51.960;5.582;2023-05-02T09:21:58;4.27;;;1.80;;
12986;SDS011;58897;51.960;5.582;2023-05-02T09:24:26;5.53;;;2.67;;
12986;SDS011;58897;51.960;5.582;2023-05-02T09:29:23;5.97;;;2.90;;
12986;SDS011;58897;51.960;5.582;2023-05-02T09:31:50;5.37;;;1.90;;
12986;SDS011;58897;51.960;5.582;2023-05-02T09:34:22;6.80;;;2.30;;
12986;SDS011;58897;51.960;5.582;2023-05-02T09:36:49;4.40;;;1.63;;
12986;SDS011;58897;51.960;5.582;2023-05-02T09:39:23;3.80;;;1.90;;
12986;SDS011;58897;51.960;5.582;2023-05-02T09:41:51;235.93;;;30.53;;
12986;SDS011;58897;51.960;5.582;2023-05-02T09:44:19;20.37;;;5.53;;
12986;SDS011;58897;51.960;5.582;2023-05-02T09:46:48;122.17;;;13.07;;
12986;SDS011;58897;51.960;5.582;2023-05-02T09:49:16;17.63;;;3.97;;
12986;SDS011;58897;51.960;5.582;2023-05-02T09:51:44;4.90;;;1.90;;
12986;SDS011;58897;51.960;5.582;2023-05-02T09:57:01;9.10;;;2.67;;
12986;SDS011;58897;51.960;5.582;2023-05-02T09:59:28;5.43;;;2.23;;
12986;SDS011;58897;51.960;5.582;2023-05-02T10:02:00;4.80;;;2.00;;
12986;SDS011;58897;51.960;5.582;2023-05-02T10:04:29;5.63;;;1.50;;
12986;SDS011;58897;51.960;5.582;2023-05-02T10:06:57;3.30;;;2.10;;
12986;SDS011;58897;51.960;5.582;2023-05-02T10:09:25;3.80;;;2.10;;
12986;SDS011;58897;51.960;5.582;2023-05-02T10:11:57;6.50;;;1.90;;
12986;SDS011;58897;51.960;5.582;2023-05-02T10:14:33;3.07;;;1.70;;
12986;SDS011;58897;51.960;5.582;2023-05-02T10:17:07;2.57;;;1.83;;
12986;SDS011;58897;51.960;5.582;2023-05-02T10:19:50;6.93;;;1.93;;
12986;SDS011;58897;51.960;5.582;2023-05-02T10:22:18;5.23;;;2.07;;
12986;SDS011;58897;51.960;5.582;2023-05-02T10:24:46;3.67;;;2.47;;
12986;SDS011;58897;51.960;5.582;2023-05-02T10:27:14;3.40;;;2.17;;
12986;SDS011;58897;51.960;5.582;2023-05-02T10:29:41;3.50;;;1.90;;
12986;SDS011;58897;51.960;5.582;2023-05-02T10:32:09;4.70;;;1.70;;
12986;SDS011;58897;51.960;5.582;2023-05-02T10:34:36;5.57;;;1.90;;
12986;SDS011;58897;51.960;5.582;2023-05-02T10:37:05;3.17;;;2.07;;
12986;SDS011;58897;51.960;5.582;2023-05-02T10:39:32;4.67;;;2.00;;
12986;SDS011;58897;51.960;5.582;2023-05-02T10:41:59;3.00;;;2.23;;
12986;SDS011;58897;51.960;5.582;2023-05-02T10:44:35;3.37;;;2.17;;
12986;SDS011;58897;51.960;5.582;2023-05-02T10:47:21;3.40;;;2.00;;
12986;SDS011;58897;51.960;5.582;2023-05-02T10:49:50;3.43;;;1.90;;
12986;SDS011;58897;51.960;5.582;2023-05-02T10:52:34;5.53;;;2.40;;
12986;SDS011;58897;51.960;5.582;2023-05-02T10:55:22;2.90;;;2.00;;
12986;SDS011;58897;51.960;5.582;2023-05-02T11:00:33;4.43;;;2.50;;
12986;SDS011;58897;51.960;5.582;2023-05-02T11:03:00;5.30;;;2.23;;
12986;SDS011;58897;51.960;5.582;2023-05-02T11:05:28;4.53;;;2.30;;
12986;SDS011;58897;51.960;5.582;2023-05-02T11:10:40;5.17;;;1.90;;
12986;SDS011;58897;51.960;5.582;2023-05-02T11:13:06;5.10;;;2.37;;
12986;SDS011;58897;51.960;5.582;2023-05-02T11:18:06;7.00;;;2.67;;
12986;SDS011;58897;51.960;5.582;2023-05-02T11:20:34;6.73;;;2.63;;
12986;SDS011;58897;51.960;5.582;2023-05-02T11:26:00;3.60;;;2.40;;
12986;SDS011;58897;51.960;5.582;2023-05-02T11:28:47;5.53;;;2.73;;
12986;SDS011;58897;51.960;5.582;2023-05-02T11:36:29;7.47;;;2.77;;
12986;SDS011;58897;51.960;5.582;2023-05-02T11:38:59;6.87;;;2.13;;
12986;SDS011;58897;51.960;5.582;2023-05-02T11:41:39;6.97;;;2.60;;
12986;SDS011;58897;51.960;5.582;2023-05-02T11:44:09;5.10;;;2.37;;
12986;SDS011;58897;51.960;5.582;2023-05-02T11:46:36;3.50;;;1.87;;
12986;SDS011;58897;51.960;5.582;2023-05-02T11:49:04;3.40;;;1.97;;
12986;SDS011;58897;51.960;5.582;2023-05-02T11:51:34;4.10;;;2.00;;
12986;SDS011;58897;51.960;5.582;2023-05-02T11:54:00;3.80;;;2.10;;
12986;SDS011;58897;51.960;5.582;2023-05-02T11:56:27;3.73;;;2.43;;
12986;SDS011;58897;51.960;5.582;2023-05-02T11:59:00;3.13;;;1.67;;
12986;SDS011;58897;51.960;5.582;2023-05-02T12:01:28;6.23;;;2.20;;
12986;SDS011;58897;51.960;5.582;2023-05-02T12:04:02;4.97;;;2.30;;
12986;SDS011;58897;51.960;5.582;2023-05-02T12:06:30;4.70;;;2.40;;
12986;SDS011;58897;51.960;5.582;2023-05-02T12:09:12;5.33;;;2.17;;
12986;SDS011;58897;51.960;5.582;2023-05-02T12:11:41;5.67;;;1.80;;
12986;SDS011;58897;51.960;5.582;2023-05-02T12:14:08;3.43;;;1.83;;
12986;SDS011;58897;51.960;5.582;2023-05-02T12:16:35;3.30;;;1.97;;
12986;SDS011;58897;51.960;5.582;2023-05-02T12:19:02;5.73;;;2.20;;
12986;SDS011;58897;51.960;5.582;2023-05-02T12:21:29;4.43;;;1.80;;
12986;SDS011;58897;51.960;5.582;2023-05-02T12:23:59;4.83;;;2.20;;
12986;SDS011;58897;51.960;5.582;2023-05-02T12:26:27;4.20;;;2.53;;
12986;SDS011;58897;51.960;5.582;2023-05-02T12:28:58;4.63;;;2.10;;
12986;SDS011;58897;51.960;5.582;2023-05-02T12:31:26;6.97;;;2.63;;
12986;SDS011;58897;51.960;5.582;2023-05-02T12:33:55;7.80;;;2.10;;
12986;SDS011;58897;51.960;5.582;2023-05-02T12:36:23;8.17;;;2.43;;
12986;SDS011;58897;51.960;5.582;2023-05-02T12:38:54;4.53;;;2.03;;
12986;SDS011;58897;51.960;5.582;2023-05-02T12:44:01;5.00;;;2.10;;
12986;SDS011;58897;51.960;5.582;2023-05-02T12:46:28;5.47;;;3.27;;
12986;SDS011;58897;51.960;5.582;2023-05-02T12:49:00;6.37;;;2.50;;
12986;SDS011;58897;51.960;5.582;2023-05-02T12:51:27;4.93;;;2.33;;
12986;SDS011;58897;51.960;5.582;2023-05-02T12:53:56;6.53;;;2.63;;
12986;SDS011;58897;51.960;5.582;2023-05-02T12:56:23;3.57;;;2.37;;
12986;SDS011;58897;51.960;5.582;2023-05-02T12:58:49;7.53;;;2.63;;
12986;SDS011;58897;51.960;5.582;2023-05-02T13:01:16;3.83;;;2.63;;
12986;SDS011;58897;51.960;5.582;2023-05-02T13:03:43;7.20;;;2.60;;
12986;SDS011;58897;51.960;5.582;2023-05-02T13:06:09;8.13;;;3.43;;
12986;SDS011;58897;51.960;5.582;2023-05-02T13:08:36;6.57;;;2.97;;
12986;SDS011;58897;51.960;5.582;2023-05-02T13:11:03;7.93;;;2.63;;
12986;SDS011;58897;51.960;5.582;2023-05-02T13:13:29;7.33;;;2.63;;
12986;SDS011;58897;51.960;5.582;2023-05-02T13:15:57;3.53;;;2.30;;
12986;SDS011;58897;51.960;5.582;2023-05-02T13:18:24;5.97;;;2.93;;
12986;SDS011;58897;51.960;5.582;2023-05-02T13:20:51;4.17;;;2.70;;
12986;SDS011;58897;51.960;5.582;2023-05-02T13:23:17;6.97;;;3.90;;
12986;SDS011;58897;51.960;5.582;2023-05-02T13:25:44;8.13;;;3.10;;
12986;SDS011;58897;51.960;5.582;2023-05-02T13:28:10;5.57;;;2.40;;
12986;SDS011;58897;51.960;5.582;2023-05-02T13:30:37;5.40;;;2.73;;
12986;SDS011;58897;51.960;5.582;2023-05-02T13:33:03;4.53;;;2.30;;
12986;SDS011;58897;51.960;5.582;2023-05-02T13:35:30;6.47;;;2.60;;
12986;SDS011;58897;51.960;5.582;2023-05-02T13:37:59;5.43;;;2.50;;
12986;SDS011;58897;51.960;5.582;2023-05-02T13:40:26;5.10;;;3.27;;
12986;SDS011;58897;51.960;5.582;2023-05-02T13:42:53;5.87;;;2.87;;
12986;SDS011;58897;51.960;5.582;2023-05-02T13:45:19;5.53;;;2.97;;
12986;SDS011;58897;51.960;5.582;2023-05-02T13:47:46;4.20;;;2.13;;
12986;SDS011;58897;51.960;5.582;2023-05-02T13:50:13;6.33;;;2.73;;
12986;SDS011;58897;51.960;5.582;2023-05-02T13:52:39;5.03;;;2.27;;
12986;SDS011;58897;51.960;5.582;2023-05-02T13:55:06;3.60;;;2.13;;
12986;SDS011;58897;51.960;5.582;2023-05-02T13:57:33;3.97;;;2.27;;
12986;SDS011;58897;51.960;5.582;2023-05-02T13:59:59;10.37;;;2.67;;
12986;SDS011;58897;51.960;5.582;2023-05-02T14:02:26;5.00;;;2.60;;
12986;SDS011;58897;51.960;5.582;2023-05-02T14:04:53;6.40;;;2.67;;
12986;SDS011;58897;51.960;5.582;2023-05-02T14:07:20;5.03;;;2.90;;
12986;SDS011;58897;51.960;5.582;2023-05-02T14:09:47;3.07;;;2.20;;
12986;SDS011;58897;51.960;5.582;2023-05-02T14:12:14;5.47;;;2.77;;
12986;SDS011;58897;51.960;5.582;2023-05-02T14:14:41;6.77;;;2.83;;
12986;SDS011;58897;51.960;5.582;2023-05-02T14:17:07;4.00;;;2.50;;
12986;SDS011;58897;51.960;5.582;2023-05-02T14:19:33;6.60;;;2.40;;
12986;SDS011;58897;51.960;5.582;2023-05-02T14:22:00;3.83;;;2.13;;
12986;SDS011;58897;51.960;5.582;2023-05-02T14:24:27;5.17;;;2.97;;
12986;SDS011;58897;51.960;5.582;2023-05-02T14:26:53;8.07;;;3.03;;
12986;SDS011;58897;51.960;5.582;2023-05-02T14:29:20;5.93;;;2.90;;
12986;SDS011;58897;51.960;5.582;2023-05-02T14:31:47;6.60;;;2.50;;
12986;SDS011;58897;51.960;5.582;2023-05-02T14:34:13;5.77;;;2.63;;
12986;SDS011;58897;51.960;5.582;2023-05-02T14:36:40;4.33;;;2.60;;
12986;SDS011;58897;51.960;5.582;2023-05-02T14:39:06;4.27;;;2.17;;
12986;SDS011;58897;51.960;5.582;2023-05-02T14:41:33;4.73;;;2.23;;
12986;SDS011;58897;51.960;5.582;2023-05-02T14:43:59;8.30;;;2.53;;
12986;SDS011;58897;51.960;5.582;2023-05-02T14:46:26;6.97;;;3.00;;
12986;SDS011;58897;51.960;5.582;2023-05-02T14:48:52;4.50;;;2.50;;
12986;SDS011;58897;51.960;5.582;2023-05-02T14:51:18;8.50;;;3.80;;
12986;SDS011;58897;51.960;5.582;2023-05-02T14:53:46;5.87;;;2.43;;
12986;SDS011;58897;51.960;5.582;2023-05-02T14:56:13;3.70;;;2.07;;
12986;SDS011;58897;51.960;5.582;2023-05-02T14:58:42;9.47;;;2.97;;
12986;SDS011;58897;51.960;5.582;2023-05-02T15:01:15;5.67;;;2.63;;
12986;SDS011;58897;51.960;5.582;2023-05-02T15:03:43;5.73;;;2.60;;
12986;SDS011;58897;51.960;5.582;2023-05-02T15:06:30;5.20;;;2.53;;
12986;SDS011;58897;51.960;5.582;2023-05-02T15:08:58;4.50;;;2.43;;
12986;SDS011;58897;51.960;5.582;2023-05-02T15:11:24;4.50;;;2.80;;
12986;SDS011;58897;51.960;5.582;2023-05-02T15:13:51;5.53;;;2.73;;
12986;SDS011;58897;51.960;5.582;2023-05-02T15:16:17;6.17;;;2.53;;
12986;SDS011;58897;51.960;5.582;2023-05-02T15:18:44;6.07;;;2.40;;
12986;SDS011;58897;51.960;5.582;2023-05-02T15:21:10;4.50;;;2.17;;
12986;SDS011;58897;51.960;5.582;2023-05-02T15:23:37;3.90;;;2.53;;
12986;SDS011;58897;51.960;5.582;2023-05-02T15:26:04;4.37;;;3.00;;
12986;SDS011;58897;51.960;5.582;2023-05-02T15:28:30;3.53;;;2.07;;
12986;SDS011;58897;51.960;5.582;2023-05-02T15:30:57;6.30;;;2.13;;